Saturday, October 20, 2018, 10:21 PM EDT
Back to Local

KBML, Berlin Municipal Airport

Location: Milan, NH, United States Lat: 44.583
Local Time: 10:21 PM EDT ( 2:21 GMT) Lon: -71.183
Time Zone: US/Eastern Elev: 1158 ft

Show me the last for .
Show Decoded

2018-10-20 21:52 METAR KBML 210152Z AUTO 00000KT 10SM CLR 01/M01 A2956 RMK AO2 SLP016 T00111006 =
2018-10-20 20:52 METAR KBML 210052Z AUTO 00000KT 10SM SCT070 03/00 A2954 RMK AO2 SLP011 T00280000
                 =
2018-10-20 19:52 METAR KBML 202352Z AUTO 00000KT 10SM CLR 04/00 A2953 RMK AO2 SLP006 T00390000
                 10167 20039 53018 =
2018-10-20 18:52 METAR KBML 202252Z AUTO VRB03KT 10SM CLR 10/M02 A2951 RMK AO2 SLP997 T01001022 =
2018-10-20 17:52 METAR KBML 202152Z AUTO VRB05KT 10SM CLR 12/M03 A2949 RMK AO2 SLP989 T01221033 =
2018-10-20 16:52 METAR KBML 202052Z AUTO 28008G15KT 240V320 10SM FEW085 14/M04 A2948 RMK AO2
                 SLP983 T01441044 55000 =
2018-10-20 15:52 METAR KBML 201952Z AUTO VRB06G18KT 10SM BKN080 17/M01 A2947 RMK AO2 SLP980
                 T01671011 =
2018-10-20 14:52 METAR KBML 201852Z AUTO 24011G21KT 10SM BKN070 BKN080 16/01 A2947 RMK AO2 SLP980
                 T01610006 =
2018-10-20 13:52 METAR KBML 201752Z AUTO 25012G23KT 10SM BKN060 OVC075 16/01 A2948 RMK AO2 PK WND
                 22026/1710 SLP985 60000 T01560006 10161 20111 58009 =
2018-10-20 12:52 METAR KBML 201652Z AUTO 23012G22KT 200V270 10SM FEW047 BKN060 15/04 A2949 RMK
                 AO2 SLP988 T01500039 =
2018-10-20 11:52 METAR KBML 201552Z AUTO 24006G15KT 10SM SCT038 BKN045 OVC055 13/04 A2950 RMK AO2
                 SLP995 T01330044 =
2018-10-20 10:52 METAR KBML 201452Z AUTO 23010G19KT 10SM BKN036 OVC047 12/05 A2951 RMK AO2 SLP997
                 60000 T01220050 58003 =
2018-10-20 09:52 METAR KBML 201352Z AUTO 24005KT 10SM OVC037 12/04 A2952 RMK AO2 RAB1256E10
                 SLP001 P0000 T01170044 =
2018-10-20 08:52 METAR KBML 201252Z AUTO 10SM OVC038 11/04 A2951 RMK AO2 SLP998 T01110039 =
2018-10-20 07:52 METAR KBML 201152Z AUTO 18011KT 10SM BKN042 OVC055 11/03 A2951 RMK AO2 SLP999
                 60000 T01110033 10122 20067 56011 =
2018-10-20 06:52 METAR KBML 201052Z AUTO 22011G17KT 10SM OVC044 12/02 A2952 RMK AO2 SLP000
                 T01170022 =
2018-10-20 05:52 METAR KBML 200952Z AUTO 23013G18KT 10SM BKN050 12/01 A2953 RMK AO2 RAB28E43
                 SLP004 P0000 T01170011 =
2018-10-20 03:52 METAR KBML 200752Z AUTO 22006KT 10SM OVC080 11/M01 A2958 RMK AO2 SLP020
                 T01111011 =
2018-10-20 02:52 METAR KBML 200652Z AUTO 23007KT 190V290 10SM OVC110 12/M02 A2961 RMK AO2 SLP027
                 T01171017 =
2018-10-20 01:52 METAR KBML 200552Z AUTO 00000KT 10SM BKN120 07/04 A2964 RMK AO2 SLP041 T00670044
                 10083 20056 58026 =
2018-10-20 00:52 METAR KBML 200452Z AUTO 20004KT 10SM FEW110 07/04 A2964 RMK AO2 SLP044 T00670044
                 401501017 =
2018-10-19 23:52 METAR KBML 200352Z AUTO 00000KT 10SM CLR 07/04 A2973 RMK AO2 SLP072 T00670044 =
2018-10-19 22:52 METAR KBML 200252Z AUTO 12004KT 10SM CLR 06/04 A2972 RMK AO2 SLP071 T00610044
                 58031 =

Support USWX by starting your Amazon purchase here.